createdAt,value
2023-01-28T00:00:31.632Z,1017.911603492
2023-01-28T00:01:31.566Z,1017.810012128
2023-01-28T00:02:31.647Z,1017.810012128
2023-01-28T00:03:31.655Z,1018.013194856
2023-01-28T00:04:31.607Z,1017.911603492
2023-01-28T00:05:31.620Z,1018.013194856
2023-01-28T00:06:31.606Z,1017.911603492
2023-01-28T00:07:31.596Z,1018.013194856
2023-01-28T00:08:32.603Z,1018.11478622
2023-01-28T00:09:32.590Z,1017.911603492
2023-01-28T00:10:32.595Z,1017.708420764
2023-01-28T00:11:32.564Z,1017.810012128
2023-01-28T00:12:32.606Z,1017.708420764
2023-01-28T00:13:32.596Z,1017.708420764
2023-01-28T00:14:32.655Z,1017.6068294
2023-01-28T00:15:32.601Z,1017.539101824
2023-01-28T00:16:32.685Z,1017.539101824
2023-01-28T00:17:32.606Z,1017.6068294
2023-01-28T00:18:32.597Z,1017.708420764
2023-01-28T00:19:32.573Z,1017.708420764
2023-01-28T00:20:32.585Z,1017.810012128
2023-01-28T00:21:32.584Z,1017.6068294
2023-01-28T00:22:32.600Z,1017.708420764
2023-01-28T00:23:32.614Z,1017.708420764
2023-01-28T00:24:32.642Z,1017.43751046
2023-01-28T00:25:33.594Z,1017.708420764
2023-01-28T00:26:32.626Z,1017.708420764
2023-01-28T00:27:32.590Z,1017.539101824
2023-01-28T00:28:32.595Z,1017.43751046
2023-01-28T00:29:32.738Z,1017.539101824
2023-01-28T00:30:32.951Z,1017.335919096
2023-01-28T00:31:32.621Z,1017.539101824
2023-01-28T00:32:32.584Z,1017.539101824
2023-01-28T00:33:32.588Z,1017.708420764
2023-01-28T00:34:32.660Z,1017.6068294
2023-01-28T00:35:32.586Z,1017.43751046
2023-01-28T00:36:32.604Z,1017.6068294
2023-01-28T00:37:32.634Z,1017.539101824
2023-01-28T00:38:32.604Z,1017.810012128
2023-01-28T00:39:32.619Z,1017.335919096
2023-01-28T00:40:32.590Z,1017.335919096
2023-01-28T00:41:32.753Z,1017.43751046
2023-01-28T00:42:32.599Z,1017.335919096
2023-01-28T00:43:32.600Z,1017.43751046
2023-01-28T00:44:32.588Z,1017.2343277320001
2023-01-28T00:45:32.591Z,1017.335919096
2023-01-28T00:46:32.638Z,1017.43751046
2023-01-28T00:47:32.591Z,1017.539101824
2023-01-28T00:48:32.573Z,1017.539101824
2023-01-28T00:49:32.618Z,1017.132736368
2023-01-28T00:50:32.606Z,1017.335919096
2023-01-28T00:51:32.617Z,1017.2343277320001
2023-01-28T00:52:32.590Z,1017.132736368
2023-01-28T00:53:32.737Z,1017.2343277320001
2023-01-28T00:54:32.588Z,1017.132736368
2023-01-28T00:55:32.585Z,1017.2343277320001
2023-01-28T00:56:32.586Z,1017.132736368
2023-01-28T00:57:32.593Z,1017.132736368
2023-01-28T00:58:32.589Z,1017.031145004
2023-01-28T00:59:32.598Z,1017.2343277320001
2023-01-28T01:00:32.641Z,1017.031145004
2023-01-28T01:01:32.772Z,1017.031145004
2023-01-28T01:02:32.628Z,1017.2343277320001
2023-01-28T01:03:32.588Z,1017.031145004
2023-01-28T01:04:32.586Z,1016.9295536400001
2023-01-28T01:05:32.751Z,1016.9295536400001
2023-01-28T01:06:32.607Z,1016.9295536400001
2023-01-28T01:07:32.596Z,1016.827962276
2023-01-28T01:08:32.588Z,1016.9295536400001
2023-01-28T01:09:32.645Z,1016.827962276
2023-01-28T01:10:32.600Z,1017.031145004
2023-01-28T01:11:32.604Z,1017.031145004
2023-01-28T01:12:32.602Z,1017.031145004
2023-01-28T01:13:32.661Z,1016.9295536400001
2023-01-28T01:14:32.612Z,1016.9295536400001
2023-01-28T01:15:32.628Z,1017.031145004
2023-01-28T01:16:32.589Z,1016.827962276
2023-01-28T01:17:32.593Z,1016.827962276
2023-01-28T01:18:32.615Z,1017.031145004
2023-01-28T01:19:32.566Z,1016.9295536400001
2023-01-28T01:20:32.594Z,1016.726370912
2023-01-28T01:21:32.633Z,1016.9295536400001
2023-01-28T01:22:32.586Z,1016.827962276
2023-01-28T01:23:32.624Z,1016.523188184
2023-01-28T01:24:32.597Z,1016.6247795480001
2023-01-28T01:25:32.623Z,1016.6247795480001
2023-01-28T01:26:32.594Z,1016.726370912
2023-01-28T01:27:32.581Z,1016.9295536400001
2023-01-28T01:28:32.576Z,1016.9295536400001
2023-01-28T01:29:32.614Z,1016.827962276
2023-01-28T01:30:32.579Z,1016.726370912
2023-01-28T01:31:32.690Z,1016.726370912
2023-01-28T01:32:32.579Z,1016.9295536400001
2023-01-28T01:33:32.598Z,1016.523188184
2023-01-28T01:34:32.582Z,1016.523188184
2023-01-28T01:35:32.603Z,1016.726370912
2023-01-28T01:36:32.571Z,1016.523188184
2023-01-28T01:37:32.616Z,1016.42159682
2023-01-28T01:38:32.592Z,1016.42159682
2023-01-28T01:39:32.594Z,1016.3200054560001
2023-01-28T01:40:32.813Z,1016.42159682
2023-01-28T01:41:32.753Z,1016.42159682
2023-01-28T01:42:32.747Z,1016.3200054560001
2023-01-28T01:43:32.859Z,1016.3200054560001
2023-01-28T01:44:32.693Z,1016.3200054560001
2023-01-28T01:45:32.788Z,1016.3200054560001
2023-01-28T01:46:32.699Z,1016.3200054560001
2023-01-28T01:47:32.752Z,1016.42159682
2023-01-28T01:48:32.761Z,1016.3200054560001
2023-01-28T01:49:32.711Z,1016.218414092
2023-01-28T01:50:32.717Z,1016.3200054560001
2023-01-28T01:51:32.807Z,1016.218414092
2023-01-28T01:52:32.681Z,1016.218414092
2023-01-28T01:53:32.723Z,1016.116822728
2023-01-28T01:54:32.717Z,1016.218414092
2023-01-28T01:55:32.742Z,1016.218414092
2023-01-28T01:56:32.712Z,1016.218414092
2023-01-28T01:57:32.619Z,1016.218414092
2023-01-28T01:58:32.605Z,1016.3200054560001
2023-01-28T01:59:32.589Z,1016.3200054560001
2023-01-28T02:00:32.563Z,1016.218414092
2023-01-28T02:01:32.607Z,1016.116822728
2023-01-28T02:02:32.655Z,1016.218414092
2023-01-28T02:03:32.680Z,1016.116822728
2023-01-28T02:04:32.558Z,1016.3200054560001
2023-01-28T02:05:32.576Z,1016.218414092
2023-01-28T02:06:32.594Z,1016.218414092
2023-01-28T02:07:32.635Z,1016.0152313639999
2023-01-28T02:08:32.670Z,1015.812048636
2023-01-28T02:09:32.611Z,1016.0152313639999
2023-01-28T02:10:32.591Z,1016.116822728
2023-01-28T02:11:32.680Z,1016.0152313639999
2023-01-28T02:12:32.539Z,1015.812048636
2023-01-28T02:13:32.620Z,1015.91364
2023-01-28T02:14:32.575Z,1015.812048636
2023-01-28T02:15:32.662Z,1015.91364
2023-01-28T02:16:32.653Z,1015.7104572719999
2023-01-28T02:17:32.597Z,1015.7104572719999
2023-01-28T02:18:32.575Z,1016.0152313639999
2023-01-28T02:19:32.621Z,1015.608865908
2023-01-28T02:20:32.572Z,1015.7104572719999
2023-01-28T02:21:32.611Z,1015.812048636
2023-01-28T02:22:32.580Z,1015.812048636
2023-01-28T02:23:32.688Z,1015.812048636
2023-01-28T02:24:32.583Z,1015.7104572719999
2023-01-28T02:25:32.596Z,1015.812048636
2023-01-28T02:26:32.570Z,1015.7104572719999
2023-01-28T02:27:32.603Z,1015.7104572719999
2023-01-28T02:28:32.599Z,1015.608865908
2023-01-28T02:29:32.587Z,1015.507274544
2023-01-28T02:30:32.718Z,1015.608865908
2023-01-28T02:31:32.763Z,1015.4395469680001
2023-01-28T02:32:32.660Z,1015.507274544
2023-01-28T02:33:32.609Z,1015.507274544
2023-01-28T02:34:32.569Z,1015.4395469680001
2023-01-28T02:35:32.594Z,1015.4395469680001
2023-01-28T02:36:32.591Z,1015.3379556040001
2023-01-28T02:37:32.597Z,1015.23636424
2023-01-28T02:38:32.565Z,1015.4395469680001
2023-01-28T02:39:32.607Z,1015.507274544
2023-01-28T02:40:32.548Z,1015.23636424
2023-01-28T02:41:32.586Z,1015.23636424
2023-01-28T02:42:32.573Z,1015.3379556040001
2023-01-28T02:43:32.568Z,1015.23636424
2023-01-28T02:44:32.559Z,1015.4395469680001
2023-01-28T02:45:32.611Z,1015.4395469680001
2023-01-28T02:46:32.652Z,1015.3379556040001
2023-01-28T02:47:32.603Z,1015.3379556040001
2023-01-28T02:48:32.566Z,1015.23636424
2023-01-28T02:49:32.604Z,1015.23636424
2023-01-28T02:50:32.617Z,1015.23636424
2023-01-28T02:51:32.622Z,1015.134772876
2023-01-28T02:52:32.571Z,1015.134772876
2023-01-28T02:53:32.608Z,1015.134772876
2023-01-28T02:54:32.586Z,1014.9315901479999
2023-01-28T02:55:32.645Z,1015.134772876
2023-01-28T02:56:32.604Z,1015.134772876
2023-01-28T02:57:32.656Z,1015.134772876
2023-01-28T02:58:32.576Z,1015.134772876
2023-01-28T02:59:32.593Z,1015.033181512
2023-01-28T03:00:32.579Z,1015.033181512
2023-01-28T03:01:32.773Z,1015.134772876
2023-01-28T03:02:32.579Z,1015.134772876
2023-01-28T03:03:32.575Z,1014.9315901479999
2023-01-28T03:04:32.621Z,1015.033181512
2023-01-28T03:05:32.592Z,1014.9315901479999
2023-01-28T03:06:32.560Z,1015.033181512
2023-01-28T03:07:32.593Z,1014.9315901479999
2023-01-28T03:08:32.558Z,1015.23636424
2023-01-28T03:09:32.575Z,1015.23636424
2023-01-28T03:10:32.589Z,1015.134772876
2023-01-28T03:11:32.751Z,1014.829998784
2023-01-28T03:12:32.667Z,1015.033181512
2023-01-28T03:13:32.588Z,1014.9315901479999
2023-01-28T03:14:32.763Z,1014.9315901479999
2023-01-28T03:15:32.807Z,1014.9315901479999
2023-01-28T03:16:32.713Z,1014.9315901479999
2023-01-28T03:17:32.591Z,1014.9315901479999
2023-01-28T03:18:32.578Z,1014.9315901479999
2023-01-28T03:19:32.654Z,1014.72840742
2023-01-28T03:20:32.698Z,1014.72840742
2023-01-28T03:21:32.756Z,1014.829998784
2023-01-28T03:22:32.701Z,1014.829998784
2023-01-28T03:23:32.775Z,1014.72840742
2023-01-28T03:24:32.578Z,1015.033181512
2023-01-28T03:25:32.644Z,1014.829998784
2023-01-28T03:26:32.589Z,1014.829998784
2023-01-28T03:27:32.565Z,1014.9315901479999
2023-01-28T03:28:32.565Z,1014.9315901479999
2023-01-28T03:29:32.741Z,1015.134772876
2023-01-28T03:30:32.764Z,1014.9315901479999
2023-01-28T03:31:32.599Z,1014.9315901479999
2023-01-28T03:32:32.571Z,1014.9315901479999
2023-01-28T03:33:32.634Z,1014.72840742
2023-01-28T03:34:32.561Z,1014.72840742
2023-01-28T03:35:32.789Z,1014.6268160559999
2023-01-28T03:36:32.560Z,1014.72840742
2023-01-28T03:37:32.772Z,1014.72840742
2023-01-28T03:38:32.565Z,1014.829998784
2023-01-28T03:39:32.687Z,1014.72840742
2023-01-28T03:40:32.588Z,1014.72840742
2023-01-28T03:41:32.636Z,1014.423633328
2023-01-28T03:42:32.686Z,1014.72840742
2023-01-28T03:43:32.675Z,1014.5252246919999
2023-01-28T03:44:32.609Z,1014.423633328
2023-01-28T03:45:32.657Z,1014.5252246919999
2023-01-28T03:46:32.755Z,1014.5252246919999
2023-01-28T03:47:32.608Z,1014.3220419639999
2023-01-28T03:48:32.656Z,1014.5252246919999
2023-01-28T03:49:32.630Z,1014.423633328
2023-01-28T03:50:32.693Z,1014.423633328
2023-01-28T03:51:32.575Z,1014.5252246919999
2023-01-28T03:52:32.691Z,1014.3220419639999
2023-01-28T03:53:32.569Z,1014.3220419639999
2023-01-28T03:54:32.547Z,1014.5252246919999
2023-01-28T03:55:32.581Z,1014.423633328
2023-01-28T03:56:32.574Z,1014.5252246919999
2023-01-28T03:57:32.736Z,1014.3220419639999
2023-01-28T03:58:32.541Z,1014.423633328
2023-01-28T03:59:32.567Z,1014.2204505999999
2023-01-28T04:00:32.569Z,1014.2204505999999
2023-01-28T04:01:32.616Z,1014.423633328
2023-01-28T04:02:32.677Z,1014.1188592359999
2023-01-28T04:03:32.581Z,1014.2204505999999
2023-01-28T04:04:32.673Z,1014.2204505999999
2023-01-28T04:05:32.579Z,1014.0172678719999
2023-01-28T04:06:32.559Z,1014.1188592359999
2023-01-28T04:07:33.734Z,1014.423633328
2023-01-28T04:08:32.588Z,1014.2204505999999
2023-01-28T04:09:32.593Z,1014.1188592359999
2023-01-28T04:10:32.558Z,1014.0172678719999
2023-01-28T04:11:32.574Z,1013.9156765079999
2023-01-28T04:12:32.571Z,1013.9156765079999
2023-01-28T04:13:32.592Z,1014.1188592359999
2023-01-28T04:14:32.579Z,1014.1188592359999
2023-01-28T04:15:32.580Z,1013.9156765079999
2023-01-28T04:16:32.565Z,1014.1188592359999
2023-01-28T04:17:32.605Z,1014.1188592359999
2023-01-28T04:18:32.559Z,1014.0172678719999
2023-01-28T04:19:32.588Z,1013.8140851439999
2023-01-28T04:20:32.695Z,1014.1188592359999
2023-01-28T04:21:32.582Z,1014.0172678719999
2023-01-28T04:22:32.573Z,1013.9156765079999
2023-01-28T04:23:32.600Z,1014.0172678719999
2023-01-28T04:24:32.566Z,1013.8140851439999
2023-01-28T04:25:32.620Z,1013.7124937799999
2023-01-28T04:26:32.583Z,1013.7124937799999
2023-01-28T04:27:32.571Z,1013.9156765079999
2023-01-28T04:28:32.645Z,1013.7124937799999
2023-01-28T04:29:32.570Z,1013.6109024159999
2023-01-28T04:30:32.612Z,1013.8140851439999
2023-01-28T04:31:33.121Z,1013.6109024159999
2023-01-28T04:32:32.558Z,1013.7124937799999
2023-01-28T04:33:32.596Z,1013.8140851439999
2023-01-28T04:34:32.568Z,1013.4077196879999
2023-01-28T04:35:33.583Z,1013.7124937799999
2023-01-28T04:36:32.558Z,1013.7124937799999
2023-01-28T04:37:32.605Z,1013.6109024159999
2023-01-28T04:38:32.591Z,1013.5093110519999
2023-01-28T04:39:32.584Z,1013.5093110519999
2023-01-28T04:40:32.561Z,1013.6109024159999
2023-01-28T04:41:32.569Z,1013.5093110519999
2023-01-28T04:42:32.577Z,1013.6109024159999
2023-01-28T04:43:32.569Z,1013.5093110519999
2023-01-28T04:44:32.567Z,1013.5093110519999
2023-01-28T04:45:32.575Z,1013.339992112
2023-01-28T04:46:32.553Z,1013.4077196879999
2023-01-28T04:47:32.569Z,1013.238400748
2023-01-28T04:48:32.556Z,1013.339992112
2023-01-28T04:49:32.590Z,1013.5093110519999
2023-01-28T04:50:32.567Z,1013.4077196879999
2023-01-28T04:51:32.592Z,1013.238400748
2023-01-28T04:52:32.563Z,1013.4077196879999
2023-01-28T04:53:32.581Z,1013.238400748
2023-01-28T04:54:32.600Z,1013.4077196879999
2023-01-28T04:55:32.578Z,1013.339992112
2023-01-28T04:56:32.549Z,1013.4077196879999
2023-01-28T04:57:32.606Z,1013.238400748
2023-01-28T04:58:32.563Z,1013.339992112
2023-01-28T04:59:32.592Z,1013.238400748
2023-01-28T05:00:32.552Z,1013.339992112
2023-01-28T05:01:32.557Z,1013.4077196879999
2023-01-28T05:02:32.631Z,1013.238400748
2023-01-28T05:03:34.151Z,1013.4077196879999
2023-01-28T05:04:32.568Z,1013.339992112
2023-01-28T05:05:32.578Z,1013.238400748
2023-01-28T05:06:32.581Z,1013.4077196879999
2023-01-28T05:07:32.576Z,1013.339992112
2023-01-28T05:08:32.533Z,1013.03521802
2023-01-28T05:09:32.602Z,1013.03521802
2023-01-28T05:10:32.566Z,1013.1368093839999
2023-01-28T05:11:32.645Z,1013.1368093839999
2023-01-28T05:12:32.565Z,1013.1368093839999
2023-01-28T05:13:32.583Z,1013.03521802
2023-01-28T05:14:32.584Z,1013.1368093839999
2023-01-28T05:15:32.564Z,1012.8320352919999
2023-01-28T05:16:32.594Z,1013.03521802
2023-01-28T05:17:32.641Z,1012.933626656
2023-01-28T05:18:32.553Z,1012.8320352919999
2023-01-28T05:19:32.570Z,1012.7304439279999
2023-01-28T05:20:32.606Z,1012.8320352919999
2023-01-28T05:21:32.532Z,1012.8320352919999
2023-01-28T05:22:32.542Z,1012.8320352919999
2023-01-28T05:23:32.579Z,1012.8320352919999
2023-01-28T05:24:32.613Z,1012.8320352919999
2023-01-28T05:25:32.599Z,1012.8320352919999
2023-01-28T05:26:32.542Z,1012.5272611999999
2023-01-28T05:27:32.573Z,1012.628852564
2023-01-28T05:28:32.663Z,1012.8320352919999
2023-01-28T05:29:32.557Z,1012.8320352919999
2023-01-28T05:30:32.660Z,1012.7304439279999
2023-01-28T05:31:32.595Z,1012.5272611999999
2023-01-28T05:32:32.599Z,1012.628852564
2023-01-28T05:33:32.540Z,1012.4256698359999
2023-01-28T05:34:32.576Z,1012.324078472
2023-01-28T05:35:32.586Z,1012.324078472
2023-01-28T05:36:32.597Z,1012.324078472
2023-01-28T05:37:32.560Z,1012.4256698359999
2023-01-28T05:38:32.537Z,1012.324078472
2023-01-28T05:39:32.554Z,1012.4256698359999
2023-01-28T05:40:32.622Z,1012.2224871079999
2023-01-28T05:41:32.599Z,1012.4256698359999
2023-01-28T05:42:32.546Z,1012.4256698359999
2023-01-28T05:43:32.589Z,1012.5272611999999
2023-01-28T05:44:32.558Z,1012.628852564
2023-01-28T05:45:32.669Z,1012.5272611999999
2023-01-28T05:46:32.580Z,1012.2224871079999
2023-01-28T05:47:32.565Z,1012.2224871079999
2023-01-28T05:48:32.614Z,1012.324078472
2023-01-28T05:49:32.546Z,1012.2224871079999
2023-01-28T05:50:32.585Z,1012.4256698359999
2023-01-28T05:51:32.567Z,1012.324078472
2023-01-28T05:52:32.585Z,1012.2224871079999
2023-01-28T05:53:32.568Z,1012.120895744
2023-01-28T05:54:32.557Z,1012.2224871079999
2023-01-28T05:55:32.559Z,1012.324078472
2023-01-28T05:56:32.557Z,1012.324078472
2023-01-28T05:57:32.525Z,1012.120895744
2023-01-28T05:58:32.574Z,1012.2224871079999
2023-01-28T05:59:32.584Z,1012.2224871079999
2023-01-28T06:00:32.566Z,1012.120895744
2023-01-28T06:01:32.557Z,1012.2224871079999
2023-01-28T06:02:32.708Z,1012.120895744
2023-01-28T06:03:32.603Z,1012.2224871079999
2023-01-28T06:04:32.578Z,1012.0193043800001
2023-01-28T06:05:32.571Z,1012.120895744
2023-01-28T06:06:32.543Z,1012.120895744
2023-01-28T06:07:32.585Z,1012.0193043800001
2023-01-28T06:08:32.554Z,1012.120895744
2023-01-28T06:09:32.550Z,1012.120895744
2023-01-28T06:10:32.531Z,1012.120895744
2023-01-28T06:11:32.580Z,1012.120895744
2023-01-28T06:12:32.573Z,1012.0193043800001
2023-01-28T06:13:32.546Z,1012.120895744
2023-01-28T06:14:32.557Z,1012.2224871079999
2023-01-28T06:15:32.578Z,1011.816121652
2023-01-28T06:16:32.543Z,1012.120895744
2023-01-28T06:17:32.539Z,1012.0193043800001
2023-01-28T06:18:32.542Z,1012.120895744
2023-01-28T06:19:32.575Z,1012.120895744
2023-01-28T06:20:32.622Z,1011.9177130160001
2023-01-28T06:21:32.580Z,1012.2224871079999
2023-01-28T06:22:32.557Z,1012.2224871079999
2023-01-28T06:23:32.567Z,1012.0193043800001
2023-01-28T06:24:32.558Z,1012.120895744
2023-01-28T06:25:32.596Z,1012.0193043800001
2023-01-28T06:26:32.568Z,1012.120895744
2023-01-28T06:27:32.561Z,1011.816121652
2023-01-28T06:28:32.544Z,1012.2224871079999
2023-01-28T06:29:32.566Z,1012.0193043800001
2023-01-28T06:30:32.626Z,1012.120895744
2023-01-28T06:31:32.620Z,1012.0193043800001
2023-01-28T06:32:32.536Z,1012.120895744
2023-01-28T06:33:32.590Z,1012.2224871079999
2023-01-28T06:34:32.518Z,1012.2224871079999
2023-01-28T06:35:32.557Z,1012.0193043800001
2023-01-28T06:36:32.537Z,1012.2224871079999
2023-01-28T06:37:32.575Z,1012.2224871079999
2023-01-28T06:38:32.550Z,1012.0193043800001
2023-01-28T06:39:32.568Z,1012.120895744
2023-01-28T06:40:32.533Z,1012.120895744
2023-01-28T06:41:32.561Z,1012.0193043800001
2023-01-28T06:42:32.565Z,1012.120895744
2023-01-28T06:43:32.560Z,1012.120895744
2023-01-28T06:44:32.527Z,1012.120895744
2023-01-28T06:45:32.633Z,1012.120895744
2023-01-28T06:46:32.654Z,1012.120895744
2023-01-28T06:47:32.638Z,1012.2224871079999
2023-01-28T06:48:32.578Z,1012.0193043800001
2023-01-28T06:49:32.562Z,1011.9177130160001
2023-01-28T06:50:32.549Z,1011.816121652
2023-01-28T06:51:32.568Z,1012.0193043800001
2023-01-28T06:52:32.537Z,1011.816121652
2023-01-28T06:53:32.580Z,1011.9177130160001
2023-01-28T06:54:32.527Z,1011.9177130160001
2023-01-28T06:55:32.544Z,1012.120895744
2023-01-28T06:56:32.530Z,1012.120895744
2023-01-28T06:57:32.598Z,1011.9177130160001
2023-01-28T06:58:32.517Z,1012.0193043800001
2023-01-28T06:59:32.575Z,1012.0193043800001
2023-01-28T07:00:32.508Z,1011.9177130160001
2023-01-28T07:01:32.805Z,1012.0193043800001
2023-01-28T07:02:32.715Z,1011.816121652
2023-01-28T07:03:32.587Z,1012.120895744
2023-01-28T07:04:32.544Z,1011.9177130160001
2023-01-28T07:05:32.580Z,1011.9177130160001
2023-01-28T07:06:32.552Z,1011.816121652
2023-01-28T07:07:33.582Z,1012.0193043800001
2023-01-28T07:08:32.558Z,1011.816121652
2023-01-28T07:09:32.571Z,1012.0193043800001
2023-01-28T07:10:32.545Z,1011.9177130160001
2023-01-28T07:11:32.582Z,1011.816121652
2023-01-28T07:12:32.539Z,1011.816121652
2023-01-28T07:13:32.554Z,1011.7145302880001
2023-01-28T07:14:32.540Z,1012.120895744
2023-01-28T07:15:32.592Z,1012.120895744
2023-01-28T07:16:32.531Z,1012.0193043800001
2023-01-28T07:17:32.632Z,1011.816121652
2023-01-28T07:18:32.549Z,1011.9177130160001
2023-01-28T07:19:32.573Z,1011.7145302880001
2023-01-28T07:20:32.580Z,1011.7145302880001
2023-01-28T07:21:32.560Z,1011.7145302880001
2023-01-28T07:22:32.555Z,1011.612938924
2023-01-28T07:23:32.609Z,1011.7145302880001
2023-01-28T07:24:32.520Z,1011.612938924
2023-01-28T07:25:32.747Z,1011.9177130160001
2023-01-28T07:26:32.530Z,1011.51134756
2023-01-28T07:27:32.608Z,1011.612938924
2023-01-28T07:28:32.516Z,1011.7145302880001
2023-01-28T07:29:32.646Z,1011.816121652
2023-01-28T07:30:32.523Z,1011.816121652
2023-01-28T07:31:32.662Z,1012.120895744
2023-01-28T07:32:32.526Z,1011.9177130160001
2023-01-28T07:33:32.641Z,1011.612938924
2023-01-28T07:34:32.546Z,1011.612938924
2023-01-28T07:35:32.568Z,1011.612938924
2023-01-28T07:36:32.578Z,1011.816121652
2023-01-28T07:37:32.559Z,1011.816121652
2023-01-28T07:38:32.556Z,1011.612938924
2023-01-28T07:39:32.542Z,1011.612938924
2023-01-28T07:40:32.549Z,1011.7145302880001
2023-01-28T07:41:32.577Z,1011.816121652
2023-01-28T07:42:32.534Z,1011.612938924
2023-01-28T07:43:32.560Z,1011.51134756
2023-01-28T07:44:32.528Z,1011.612938924
2023-01-28T07:45:32.579Z,1011.816121652
2023-01-28T07:46:32.525Z,1011.816121652
2023-01-28T07:47:32.605Z,1011.7145302880001
2023-01-28T07:48:32.532Z,1011.9177130160001
2023-01-28T07:49:32.577Z,1011.612938924
2023-01-28T07:50:32.531Z,1011.612938924
2023-01-28T07:51:32.569Z,1011.51134756
2023-01-28T07:52:32.556Z,1011.612938924
2023-01-28T07:53:32.548Z,1011.308164832
2023-01-28T07:54:32.550Z,1011.51134756
2023-01-28T07:55:32.563Z,1011.51134756
2023-01-28T07:56:32.524Z,1011.409756196
2023-01-28T07:57:32.560Z,1011.51134756
2023-01-28T07:58:32.561Z,1011.409756196
2023-01-28T07:59:32.578Z,1011.409756196
2023-01-28T08:00:32.542Z,1011.612938924
2023-01-28T08:01:32.678Z,1011.612938924
2023-01-28T08:02:32.566Z,1011.51134756
2023-01-28T08:03:32.559Z,1011.409756196
2023-01-28T08:04:32.651Z,1011.51134756
2023-01-28T08:05:32.669Z,1011.612938924
2023-01-28T08:06:32.526Z,1011.409756196
2023-01-28T08:07:32.557Z,1011.1388458920001
2023-01-28T08:08:32.560Z,1010.935663164
2023-01-28T08:09:32.555Z,1010.8340718000001
2023-01-28T08:10:32.539Z,1010.935663164
2023-01-28T08:11:32.554Z,1010.8340718000001
2023-01-28T08:12:32.534Z,1010.8340718000001
2023-01-28T08:13:32.541Z,1010.630889072
2023-01-28T08:14:32.565Z,1011.308164832
2023-01-28T08:15:34.830Z,1011.1388458920001
2023-01-28T08:16:32.512Z,1011.2404372559998
2023-01-28T08:17:32.541Z,1011.2404372559998
2023-01-28T08:18:32.533Z,1011.1388458920001
2023-01-28T08:19:32.541Z,1011.1388458920001
2023-01-28T08:20:32.572Z,1011.409756196
2023-01-28T08:21:32.531Z,1011.2404372559998
2023-01-28T08:22:32.601Z,1011.1388458920001
2023-01-28T08:23:32.547Z,1011.2404372559998
2023-01-28T08:24:32.602Z,1010.935663164
2023-01-28T08:25:32.568Z,1011.2404372559998
2023-01-28T08:26:32.568Z,1011.2404372559998
2023-01-28T08:27:32.520Z,1011.2404372559998
2023-01-28T08:28:32.674Z,1011.308164832
2023-01-28T08:29:32.531Z,1011.0372545280001
2023-01-28T08:30:32.611Z,1011.0372545280001
2023-01-28T08:31:32.567Z,1011.0372545280001
2023-01-28T08:32:32.689Z,1010.935663164
2023-01-28T08:33:32.562Z,1010.8340718000001
2023-01-28T08:34:32.549Z,1011.0372545280001
2023-01-28T08:35:32.530Z,1010.935663164
2023-01-28T08:36:32.555Z,1010.935663164
2023-01-28T08:37:32.541Z,1010.8340718000001
2023-01-28T08:38:32.574Z,1010.935663164
2023-01-28T08:39:32.541Z,1010.935663164
2023-01-28T08:40:32.575Z,1011.0372545280001
2023-01-28T08:41:32.533Z,1010.935663164
2023-01-28T08:42:32.584Z,1010.935663164
2023-01-28T08:43:32.546Z,1010.8340718000001
2023-01-28T08:44:32.541Z,1010.935663164
2023-01-28T08:45:32.560Z,1010.8340718000001
2023-01-28T08:46:32.658Z,1010.8340718000001
2023-01-28T08:47:32.521Z,1010.630889072
2023-01-28T08:48:32.592Z,1010.630889072
2023-01-28T08:49:32.519Z,1010.7324804360001
2023-01-28T08:50:32.631Z,1010.7324804360001
2023-01-28T08:51:32.548Z,1010.5292977080001
2023-01-28T08:52:34.562Z,1010.7324804360001
2023-01-28T08:53:32.533Z,1010.7324804360001
2023-01-28T08:54:32.561Z,1011.1388458920001
2023-01-28T08:55:32.543Z,1010.7324804360001
2023-01-28T08:56:32.533Z,1010.8340718000001
2023-01-28T08:57:32.524Z,1011.0372545280001
2023-01-28T08:58:32.583Z,1010.935663164
2023-01-28T08:59:32.535Z,1010.8340718000001
2023-01-28T09:00:32.547Z,1010.8340718000001
2023-01-28T09:01:32.576Z,1010.935663164
2023-01-28T09:02:32.604Z,1011.0372545280001
2023-01-28T09:03:32.559Z,1010.8340718000001
2023-01-28T09:04:32.548Z,1010.935663164
2023-01-28T09:05:32.519Z,1010.935663164
2023-01-28T09:06:32.565Z,1010.935663164
2023-01-28T09:07:32.536Z,1010.8340718000001
2023-01-28T09:08:32.598Z,1010.7324804360001
2023-01-28T09:09:32.568Z,1010.8340718000001
2023-01-28T09:10:32.538Z,1010.935663164
2023-01-28T09:11:32.523Z,1010.935663164
2023-01-28T09:12:32.762Z,1010.5292977080001
2023-01-28T09:13:32.581Z,1010.7324804360001
2023-01-28T09:14:32.557Z,1010.630889072
2023-01-28T09:15:32.519Z,1010.7324804360001
2023-01-28T09:16:32.557Z,1010.8340718000001
2023-01-28T09:17:32.525Z,1010.630889072
2023-01-28T09:18:32.551Z,1010.630889072
2023-01-28T09:19:32.501Z,1010.8340718000001
2023-01-28T09:20:32.514Z,1010.630889072
2023-01-28T09:21:32.519Z,1010.4277063440001
2023-01-28T09:22:32.577Z,1010.5292977080001
2023-01-28T09:23:32.560Z,1010.5292977080001
2023-01-28T09:24:32.539Z,1010.5292977080001
2023-01-28T09:25:32.542Z,1010.3261149799999
2023-01-28T09:26:32.538Z,1010.224523616
2023-01-28T09:27:32.564Z,1010.3261149799999
2023-01-28T09:28:32.585Z,1010.4277063440001
2023-01-28T09:29:32.571Z,1010.3261149799999
2023-01-28T09:30:33.269Z,1010.3261149799999
2023-01-28T09:31:35.654Z,1010.3261149799999
2023-01-28T09:32:32.541Z,1010.630889072